createdAt,value
2019-03-03T00:02:45.772Z,99497.36
2019-03-03T00:05:50.926Z,99497.64
2019-03-03T00:08:57.114Z,99503.06
2019-03-03T00:12:02.220Z,99490.77
2019-03-03T00:15:08.163Z,99495.84
2019-03-03T00:18:13.328Z,99494.70
2019-03-03T00:21:20.118Z,99500.69
2019-03-03T00:24:25.341Z,99497.91
2019-03-03T00:27:30.454Z,99495.31
2019-03-03T00:30:35.592Z,99494.62
2019-03-03T00:33:40.849Z,99491.52
2019-03-03T00:37:03.604Z,99494.01
2019-03-03T00:40:18.673Z,99489.94
2019-03-03T00:43:41.669Z,99486.34
2019-03-03T00:47:13.531Z,99494.84
2019-03-03T00:50:37.734Z,99501.03
2019-03-03T00:54:01.551Z,99492.83
2019-03-03T00:57:24.545Z,99495.70
2019-03-03T01:00:52.583Z,99494.64
2019-03-03T01:04:06.397Z,99496.52
2019-03-03T01:07:33.815Z,99499.64
2019-03-03T01:11:06.728Z,99503.97
2019-03-03T01:14:28.386Z,99504.20
2019-03-03T01:17:40.543Z,99495.44
2019-03-03T01:21:16.647Z,99491.22
2019-03-03T01:24:31.171Z,99488.53
2019-03-03T01:27:36.311Z,99483.04
2019-03-03T01:30:41.480Z,99490.16
2019-03-03T01:33:46.527Z,99490.93
2019-03-03T01:36:51.671Z,99483.66
2019-03-03T01:39:56.813Z,99480.52
2019-03-03T01:43:01.976Z,99479.73
2019-03-03T01:46:07.031Z,99475.02
2019-03-03T01:49:12.151Z,99470.20
2019-03-03T01:52:17.344Z,99473.42
2019-03-03T01:55:22.427Z,99468.17
2019-03-03T01:58:27.537Z,99470.21
2019-03-03T02:01:32.657Z,99469.05
2019-03-03T02:04:37.750Z,99476.16
2019-03-03T02:07:42.847Z,99473.87
2019-03-03T02:10:48.014Z,99478.38
2019-03-03T02:13:53.235Z,99474.34
2019-03-03T02:16:58.322Z,99467.66
2019-03-03T02:20:03.741Z,99467.15
2019-03-03T02:23:08.869Z,99462.52
2019-03-03T02:26:14.064Z,99464.93
2019-03-03T02:29:19.162Z,99463.49
2019-03-03T02:32:24.292Z,99460.47
2019-03-03T02:35:29.531Z,99461.85
2019-03-03T02:38:34.667Z,99459.80
2019-03-03T02:41:39.767Z,99455.09
2019-03-03T02:44:45.524Z,99446.39
2019-03-03T02:47:50.613Z,99444.67
2019-03-03T02:50:55.820Z,99440.95
2019-03-03T02:54:00.924Z,99438.61
2019-03-03T02:57:06.109Z,99432.76
2019-03-03T03:00:15.831Z,99423.82
2019-03-03T03:03:22.046Z,99421.52
2019-03-03T03:06:55.437Z,99429.77
2019-03-03T03:10:31.848Z,99422.10
2019-03-03T03:13:54.913Z,99416.49
2019-03-03T03:17:18.682Z,99415.95
2019-03-03T03:20:41.322Z,99427.77
2019-03-03T03:24:01.598Z,99421.33
2019-03-03T03:27:29.174Z,99418.64
2019-03-03T03:30:56.067Z,99411.02
2019-03-03T03:34:14.638Z,99406.31
2019-03-03T03:37:32.092Z,99407.47
2019-03-03T03:40:52.367Z,99406.13
2019-03-03T03:44:09.879Z,99402.62
2019-03-03T03:47:23.068Z,99395.55
2019-03-03T03:50:59.385Z,99397.86
2019-03-03T03:54:30.414Z,99389.36
2019-03-03T03:58:00.343Z,99393.36
2019-03-03T04:01:17.216Z,99401.70
2019-03-03T04:04:47.154Z,99395.66
2019-03-03T04:08:20.452Z,99388.85
2019-03-03T04:11:47.591Z,99379.67
2019-03-03T04:15:17.627Z,99369.37
2019-03-03T04:18:45.149Z,99366.05
2019-03-03T04:22:09.319Z,99366.41
2019-03-03T04:25:41.849Z,99384.88
2019-03-03T04:29:08.291Z,99385.58
2019-03-03T04:32:38.258Z,99375.55
2019-03-03T04:36:10.490Z,99381.89
2019-03-03T04:39:20.873Z,99379.45
2019-03-03T04:42:41.180Z,99377.78
2019-03-03T04:45:53.504Z,99379.04
2019-03-03T04:49:06.300Z,99374.05
2019-03-03T04:52:30.401Z,99364.80
2019-03-03T04:55:54.532Z,99366.77
2019-03-03T04:59:24.516Z,99364.61
2019-03-03T05:02:50.425Z,99367.77
2019-03-03T05:06:01.673Z,99356.44
2019-03-03T05:09:19.315Z,99338.92
2019-03-03T05:12:43.150Z,99341.56
2019-03-03T05:16:13.163Z,99342.91
2019-03-03T05:19:28.375Z,99340.98
2019-03-03T05:22:33.531Z,99342.88
2019-03-03T05:25:38.613Z,99338.45
2019-03-03T05:28:43.744Z,99342.36
2019-03-03T05:31:49.084Z,99331.96
2019-03-03T05:34:55.235Z,99329.41
2019-03-03T05:38:00.430Z,99326.96
2019-03-03T05:41:05.500Z,99321.23
2019-03-03T05:44:10.579Z,99311.30
2019-03-03T05:47:15.689Z,99302.58
2019-03-03T05:50:20.835Z,99305.46
2019-03-03T05:53:25.923Z,99289.16
2019-03-03T05:56:31.050Z,99293.27
2019-03-03T05:59:36.186Z,99294.94
2019-03-03T06:02:41.295Z,99293.15
2019-03-03T06:05:47.474Z,99292.33
2019-03-03T06:08:52.631Z,99286.64
2019-03-03T06:11:57.780Z,99306.38
2019-03-03T06:15:02.893Z,99300.67
2019-03-03T06:18:08.050Z,99301.73
2019-03-03T06:21:13.219Z,99289.45
2019-03-03T06:24:18.319Z,99299.50
2019-03-03T06:27:23.510Z,99288.86
2019-03-03T06:30:28.606Z,99273.64
2019-03-03T06:33:33.765Z,99283.19
2019-03-03T06:36:38.906Z,99277.14
2019-03-03T06:39:44.064Z,99268.91
2019-03-03T06:42:49.213Z,99265.84
2019-03-03T06:45:54.322Z,99263.23
2019-03-03T06:48:59.400Z,99259.28
2019-03-03T06:52:04.510Z,99260.78
2019-03-03T06:55:11.527Z,99262.86
2019-03-03T06:58:16.707Z,99268.86
2019-03-03T07:01:21.950Z,99268.03
2019-03-03T07:04:27.119Z,99275.29
2019-03-03T07:07:32.196Z,99272.14
2019-03-03T07:10:37.333Z,99268.70
2019-03-03T07:13:42.516Z,99272.15
2019-03-03T07:16:47.645Z,99268.94
2019-03-03T07:19:52.861Z,99273.93
2019-03-03T07:22:58.197Z,99283.36
2019-03-03T07:26:03.417Z,99279.62
2019-03-03T07:29:08.563Z,99283.13
2019-03-03T07:32:13.773Z,99267.92
2019-03-03T07:35:18.935Z,99280.48
2019-03-03T07:38:24.124Z,99277.39
2019-03-03T07:41:29.304Z,99271.30
2019-03-03T07:44:34.665Z,99287.22
2019-03-03T07:47:39.810Z,99288.89
2019-03-03T07:50:44.946Z,99260.52
2019-03-03T07:53:50.059Z,99291.13
2019-03-03T07:56:55.290Z,99288.33
2019-03-03T08:00:00.479Z,99284.36
2019-03-03T08:03:07.292Z,99295.73
2019-03-03T08:06:12.503Z,99298.12
2019-03-03T08:09:17.649Z,99299.64
2019-03-03T08:12:22.786Z,99300.09
2019-03-03T08:15:28.034Z,99295.88
2019-03-03T08:18:33.322Z,99290.09
2019-03-03T08:21:38.451Z,99294.95
2019-03-03T08:24:43.546Z,99287.00
2019-03-03T08:27:49.797Z,99295.57
2019-03-03T08:30:54.912Z,99291.25
2019-03-03T08:34:01.434Z,99286.13
2019-03-03T08:37:06.653Z,99288.48
2019-03-03T08:40:11.901Z,99279.52
2019-03-03T08:43:34.659Z,99273.72
2019-03-03T08:46:48.255Z,99280.80
2019-03-03T08:50:12.307Z,99291.91
2019-03-03T08:53:39.317Z,99283.97
2019-03-03T08:57:07.101Z,99284.80
2019-03-03T09:00:30.051Z,99274.59
2019-03-03T09:03:41.023Z,99287.61
2019-03-03T09:06:57.322Z,99278.20
2019-03-03T09:10:25.565Z,99276.00
2019-03-03T09:13:52.759Z,99269.55
2019-03-03T09:17:35.149Z,99265.77
2019-03-03T09:21:03.619Z,99275.09
2019-03-03T09:24:30.504Z,99262.94
2019-03-03T09:28:06.810Z,99278.18
2019-03-03T09:31:29.547Z,99275.75
2019-03-03T09:34:49.927Z,99271.83
2019-03-03T09:38:03.532Z,99275.34
2019-03-03T09:41:15.187Z,99267.05
2019-03-03T09:44:45.906Z,99266.13
2019-03-03T09:48:18.908Z,99272.83
2019-03-03T09:51:52.020Z,99259.06
2019-03-03T09:55:08.114Z,99264.20
2019-03-03T09:58:44.178Z,99262.70
2019-03-03T10:02:08.272Z,99270.42
2019-03-03T10:05:32.360Z,99254.20
2019-03-03T10:08:48.014Z,99258.63
2019-03-03T10:11:59.931Z,99267.52
2019-03-03T10:15:43.011Z,99266.67
2019-03-03T10:18:55.949Z,99267.47
2019-03-03T10:22:23.012Z,99259.62
2019-03-03T10:25:34.955Z,99256.53
2019-03-03T10:28:50.206Z,99254.96
2019-03-03T10:32:30.202Z,99246.10
2019-03-03T10:35:53.051Z,99241.95
2019-03-03T10:39:05.543Z,99229.53
2019-03-03T10:42:40.231Z,99223.99
2019-03-03T10:46:10.670Z,99220.68
2019-03-03T10:49:34.876Z,99221.68
2019-03-03T10:53:11.260Z,99199.91
2019-03-03T10:56:26.267Z,99211.13
2019-03-03T10:59:55.059Z,99203.19
2019-03-03T11:03:28.937Z,99214.55
2019-03-03T11:06:51.531Z,99210.65
2019-03-03T11:10:21.870Z,99230.47
2019-03-03T11:13:52.501Z,99218.03
2019-03-03T11:17:09.021Z,99217.39
2019-03-03T11:20:24.664Z,99220.98
2019-03-03T11:23:47.593Z,99218.20
2019-03-03T11:27:10.589Z,99217.78
2019-03-03T11:30:37.488Z,99239.46
2019-03-03T11:34:04.801Z,99224.45
2019-03-03T11:37:27.976Z,99221.16
2019-03-03T11:40:58.178Z,99220.02
2019-03-03T11:44:10.811Z,99215.62
2019-03-03T11:47:34.190Z,99204.16
2019-03-03T11:50:52.431Z,99195.26
2019-03-03T11:54:12.246Z,99194.10
2019-03-03T11:57:32.322Z,99192.87
2019-03-03T12:00:45.845Z,99188.52
2019-03-03T12:04:18.983Z,99183.19
2019-03-03T12:07:55.387Z,99193.48
2019-03-03T12:11:08.217Z,99171.58
2019-03-03T12:14:35.284Z,99171.87
2019-03-03T12:17:46.466Z,99164.07
2019-03-03T12:21:16.889Z,99155.02
2019-03-03T12:24:31.077Z,99164.05
2019-03-03T12:27:48.047Z,99150.23
2019-03-03T12:31:01.334Z,99145.52
2019-03-03T12:34:17.607Z,99148.11
2019-03-03T12:37:40.305Z,99148.66
2019-03-03T12:40:59.379Z,99153.05
2019-03-03T12:44:10.715Z,99135.13
2019-03-03T12:47:37.826Z,99140.65
2019-03-03T12:51:11.303Z,99148.88
2019-03-03T12:54:35.479Z,99131.29
2019-03-03T12:58:11.582Z,99127.70
2019-03-03T13:01:34.319Z,99129.28
2019-03-03T13:04:59.172Z,99113.52
2019-03-03T13:08:16.543Z,99110.86
2019-03-03T13:11:50.928Z,99104.63
2019-03-03T13:15:03.459Z,99117.25
2019-03-03T13:18:25.112Z,99113.31
2019-03-03T13:21:52.401Z,99102.12
2019-03-03T13:25:21.528Z,99100.42
2019-03-03T13:28:44.700Z,99093.55
2019-03-03T13:32:07.456Z,99095.95
2019-03-03T13:35:34.400Z,99095.17
2019-03-03T13:38:57.241Z,99101.13
2019-03-03T13:42:21.307Z,99093.70
2019-03-03T13:45:28.718Z,99089.17
2019-03-03T13:48:33.984Z,99075.38
2019-03-03T13:51:39.254Z,99077.91
2019-03-03T13:54:44.363Z,99069.56
2019-03-03T13:57:49.606Z,99064.47
2019-03-03T14:00:54.802Z,99055.23
2019-03-03T14:03:59.957Z,99053.39
2019-03-03T14:07:05.518Z,99045.95
2019-03-03T14:10:11.206Z,99048.64
2019-03-03T14:13:16.440Z,99035.93
2019-03-03T14:16:21.569Z,99023.36
2019-03-03T14:19:26.725Z,99018.42
2019-03-03T14:22:31.994Z,99026.20
2019-03-03T14:25:37.115Z,99022.94
2019-03-03T14:28:42.251Z,99026.78
2019-03-03T14:31:47.415Z,99022.97
2019-03-03T14:34:52.595Z,99005.51
2019-03-03T14:37:57.717Z,99022.47
2019-03-03T14:41:02.866Z,99024.25
2019-03-03T14:44:08.050Z,99038.96
2019-03-03T14:47:13.162Z,99019.22
2019-03-03T14:50:18.634Z,99009.11
2019-03-03T14:53:25.252Z,99006.45
2019-03-03T14:56:30.438Z,99008.33
2019-03-03T14:59:35.550Z,98995.61
2019-03-03T15:02:40.707Z,98995.83
2019-03-03T15:05:46.989Z,98991.39
2019-03-03T15:08:52.245Z,99000.71
2019-03-03T15:11:57.457Z,98981.42
2019-03-03T15:15:02.839Z,98990.47
2019-03-03T15:18:08.140Z,99000.52
2019-03-03T15:21:14.196Z,98997.53
2019-03-03T15:24:19.402Z,98991.05
2019-03-03T15:27:24.639Z,98982.02
2019-03-03T15:30:29.802Z,98979.60
2019-03-03T15:33:35.115Z,98977.34
2019-03-03T15:36:40.380Z,98984.78
2019-03-03T15:39:45.513Z,98960.47
2019-03-03T15:42:50.868Z,98967.91
2019-03-03T15:45:57.056Z,98953.88
2019-03-03T15:49:02.221Z,98952.97
2019-03-03T15:52:07.358Z,98951.95
2019-03-03T15:55:13.254Z,98944.10
2019-03-03T15:58:18.518Z,98949.24
2019-03-03T16:01:25.165Z,98943.30
2019-03-03T16:04:30.372Z,98952.16
2019-03-03T16:07:35.489Z,98949.22
2019-03-03T16:10:40.684Z,98941.54
2019-03-03T16:13:45.760Z,98936.67
2019-03-03T16:16:50.891Z,98940.53
2019-03-03T16:19:56.159Z,98936.17
2019-03-03T16:23:01.403Z,98928.22
2019-03-03T16:26:06.530Z,98924.94
2019-03-03T16:29:11.805Z,98928.13
2019-03-03T16:32:18.015Z,98937.69
2019-03-03T16:35:23.262Z,98930.05
2019-03-03T16:38:28.379Z,98929.16
2019-03-03T16:41:33.527Z,98931.28
2019-03-03T16:44:38.704Z,98937.28
2019-03-03T16:47:44.037Z,98928.90
2019-03-03T16:50:49.196Z,98921.48
2019-03-03T16:53:54.376Z,98920.48
2019-03-03T16:56:59.520Z,98916.57
2019-03-03T17:00:06.942Z,98905.45
2019-03-03T17:03:12.889Z,98909.95
2019-03-03T17:06:18.070Z,98898.38
2019-03-03T17:09:23.186Z,98900.69
2019-03-03T17:12:28.538Z,98891.33
2019-03-03T17:15:33.629Z,98882.50
2019-03-03T17:18:40.523Z,98879.40
2019-03-03T17:21:45.723Z,98874.17
2019-03-03T17:24:51.289Z,98881.95
2019-03-03T17:27:56.489Z,98877.98
2019-03-03T17:31:01.614Z,98876.02
2019-03-03T17:34:12.992Z,98876.83
2019-03-03T17:37:13.647Z,98877.69
2019-03-03T17:40:19.871Z,98875.38
2019-03-03T17:43:25.045Z,98871.11
2019-03-03T17:46:30.134Z,98875.98
2019-03-03T17:49:35.333Z,98879.53
2019-03-03T17:52:40.507Z,98878.05
2019-03-03T17:55:45.722Z,98875.75
2019-03-03T17:58:50.930Z,98875.25
2019-03-03T18:01:56.259Z,98863.80
2019-03-03T18:05:01.401Z,98878.19
2019-03-03T18:08:06.640Z,98883.53
2019-03-03T18:11:11.809Z,98877.99
2019-03-03T18:14:17.135Z,98866.42
2019-03-03T18:17:24.447Z,98866.12
2019-03-03T18:20:29.627Z,98857.16
2019-03-03T18:23:34.730Z,98855.95
2019-03-03T18:26:39.943Z,98845.73
2019-03-03T18:29:45.226Z,98834.02
2019-03-03T18:32:50.482Z,98829.03
2019-03-03T18:35:55.731Z,98828.31
2019-03-03T18:39:01.038Z,98822.64
2019-03-03T18:42:07.843Z,98819.04
2019-03-03T18:45:14.061Z,98816.42
2019-03-03T18:48:19.176Z,98802.88
2019-03-03T18:51:24.343Z,98813.60
2019-03-03T18:54:29.482Z,98807.16
2019-03-03T18:57:37.137Z,98803.65
2019-03-03T19:00:42.323Z,98804.42
2019-03-03T19:03:47.568Z,98799.98
2019-03-03T19:06:53.284Z,98803.30
2019-03-03T19:09:58.529Z,98790.48
2019-03-03T19:13:03.720Z,98796.07
2019-03-03T19:16:08.976Z,98787.57
2019-03-03T19:19:14.254Z,98794.67
2019-03-03T19:22:19.465Z,98789.20
2019-03-03T19:25:25.641Z,98777.91
2019-03-03T19:28:30.777Z,98785.81
2019-03-03T19:31:35.972Z,98779.34
2019-03-03T19:34:41.208Z,98777.22
2019-03-03T19:37:46.354Z,98772.01
2019-03-03T19:40:51.494Z,98769.72
2019-03-03T19:43:56.638Z,98766.35
2019-03-03T19:47:01.962Z,98766.17
2019-03-03T19:50:08.736Z,98765.98
2019-03-03T19:53:13.962Z,98765.48
2019-03-03T19:56:19.519Z,98757.52
2019-03-03T19:59:24.675Z,98746.09
2019-03-03T20:02:29.858Z,98747.02
2019-03-03T20:05:36.275Z,98745.59
2019-03-03T20:08:41.578Z,98745.94
2019-03-03T20:11:47.870Z,98739.03
2019-03-03T20:14:53.148Z,98746.67
2019-03-03T20:17:58.262Z,98734.14
2019-03-03T20:21:04.357Z,98734.45
2019-03-03T20:24:09.537Z,98738.16
2019-03-03T20:27:15.028Z,98735.55
2019-03-03T20:30:20.455Z,98721.53
2019-03-03T20:33:25.685Z,98715.28
2019-03-03T20:36:30.900Z,98714.92
2019-03-03T20:39:36.179Z,98717.00
2019-03-03T20:42:43.006Z,98710.66
2019-03-03T20:45:48.290Z,98705.81
2019-03-03T20:48:53.492Z,98703.06
2019-03-03T20:51:58.698Z,98708.50
2019-03-03T20:55:03.854Z,98698.61
2019-03-03T20:58:09.011Z,98694.48
2019-03-03T21:01:14.130Z,98690.87
2019-03-03T21:04:19.402Z,98686.05
2019-03-03T21:07:24.596Z,98691.61
2019-03-03T21:10:29.774Z,98682.66
2019-03-03T21:13:34.958Z,98675.98
2019-03-03T21:16:40.054Z,98680.34
2019-03-03T21:19:45.193Z,98667.66
2019-03-03T21:22:50.386Z,98674.22
2019-03-03T21:25:55.540Z,98672.37
2019-03-03T21:29:00.687Z,98663.42
2019-03-03T21:32:05.841Z,98652.36
2019-03-03T21:35:10.985Z,98659.78
2019-03-03T21:38:16.132Z,98660.25
2019-03-03T21:41:21.307Z,98646.91
2019-03-03T21:44:26.432Z,98634.08
2019-03-03T21:47:31.581Z,98612.85
2019-03-03T21:50:36.791Z,98612.11
2019-03-03T21:53:41.958Z,98601.02
2019-03-03T21:56:47.040Z,98594.00
2019-03-03T21:59:52.308Z,98589.89
2019-03-03T22:02:58.786Z,98592.41
2019-03-03T22:06:04.006Z,98591.69
2019-03-03T22:09:09.935Z,98581.55
2019-03-03T22:12:16.653Z,98573.75
2019-03-03T22:15:21.729Z,98578.88
2019-03-03T22:18:26.869Z,98565.97
2019-03-03T22:21:32.049Z,98567.53
2019-03-03T22:24:37.299Z,98558.56
2019-03-03T22:27:42.449Z,98550.17
2019-03-03T22:30:47.668Z,98541.39
2019-03-03T22:33:52.822Z,98527.91
2019-03-03T22:36:57.998Z,98513.13
2019-03-03T22:40:03.119Z,98502.67
2019-03-03T22:43:08.373Z,98506.82
2019-03-03T22:46:13.481Z,98499.69
2019-03-03T22:49:18.559Z,98502.40
2019-03-03T22:52:23.806Z,98499.16
2019-03-03T22:55:34.609Z,98496.11
2019-03-03T22:58:39.936Z,98481.20
2019-03-03T23:01:46.341Z,98471.06
2019-03-03T23:05:05.889Z,98461.62
2019-03-03T23:08:24.079Z,98447.08
2019-03-03T23:11:59.545Z,98437.56
2019-03-03T23:15:31.070Z,98436.98
2019-03-03T23:19:07.635Z,98438.19
2019-03-03T23:22:52.800Z,98443.70
2019-03-03T23:25:57.966Z,98442.53
2019-03-03T23:29:03.232Z,98428.00
2019-03-03T23:32:08.356Z,98418.84
2019-03-03T23:35:13.586Z,98415.09
2019-03-03T23:38:18.774Z,98403.88
2019-03-03T23:41:23.945Z,98406.03
2019-03-03T23:44:29.087Z,98401.02
2019-03-03T23:47:34.217Z,98407.55
2019-03-03T23:50:39.377Z,98418.13
2019-03-03T23:53:44.482Z,98408.71
2019-03-03T23:56:49.625Z,98414.38
2019-03-03T23:59:54.711Z,98418.59
